Time;durP1;ratioP1;P1;durP2;ratioP2;P2;SDS_P1;SDS_P2;PMS_P1;PMS_P2;Temp;Humidity;BMP_temperature;BMP_pressure;BME280_temperature;BME280_humidity;BME280_pressure;Samples;Min_cycle;Max_cycle;Signal;HPM_P1;HPM_P2
2023/05/11 00:00:13;;;;;;;;;;;;;;;-140.72;100.00;52938.75;5076427;28;19945;-69
2023/05/11 00:02:38;;;;;;;;;;;;;;;-140.72;100.00;52967.16;5101128;28;20294;-69
2023/05/11 00:05:04;;;;;;;;;;;;;;;-140.72;100.00;52946.88;5082221;28;19920;-69
2023/05/11 00:07:29;;;;;;;;;;;;;;;-140.72;100.00;52969.19;5092567;28;20006;-69
2023/05/11 00:09:55;;;;;;;;;;;;;;;-140.72;100.00;52922.53;5079582;28;19916;-69
2023/05/11 00:12:20;;;;;;;;;;;;;;;-140.72;100.00;52928.63;5085912;28;21710;-69
2023/05/11 00:14:45;;;;;;;;;;;;;;;-140.72;100.00;52950.94;5086124;28;20218;-69
2023/05/11 00:17:11;;;;;;;;;;;;;;;-140.72;100.00;52926.59;5102700;28;19947;-69
2023/05/11 00:19:36;;;;;;;;;;;;;;;-140.72;100.00;52938.75;5078004;28;19931;-69
2023/05/11 00:22:01;;;;;;;;;;;;;;;-140.72;100.00;52950.94;5093133;28;19970;-69
2023/05/11 00:24:26;;;;;;;;;;;;;;;-140.72;100.00;52918.47;5095498;28;20286;-69
2023/05/11 00:26:52;;;;;;;;;;;;;;;-140.72;100.00;52942.81;5096253;28;20408;-69
2023/05/11 00:29:17;;;;;;;;;;;;;;;-140.72;100.00;52918.47;5097150;28;19917;-69
2023/05/11 00:31:46;;;;;;;;;;;;;;;-140.72;100.00;52934.69;5097190;28;19964;-70
2023/05/11 00:34:12;;;;;;;;;;;;;;;-140.72;100.00;52957.03;5086637;28;19920;-70
2023/05/11 00:36:38;;;;;;;;;;;;;;;-140.72;100.00;52942.81;5097147;28;19923;-70
2023/05/11 00:39:03;;;;;;;;;;;;;;;-140.72;100.00;52920.50;5088404;28;19923;-69
2023/05/11 00:41:28;;;;;;;;;;;;;;;-140.72;100.00;52946.88;5092562;28;20003;-69
2023/05/11 00:43:54;;;;;;;;;;;;;;;-140.72;100.00;52946.88;5088570;28;20009;-70
2023/05/11 00:46:19;;;;;;;;;;;;;;;-140.72;100.00;52936.72;5084346;28;19948;-69
2023/05/11 00:48:45;;;;;;;;;;;;;;;-140.72;100.00;52926.59;5090302;28;20003;-70
2023/05/11 00:51:11;;;;;;;;;;;;;;;-140.72;100.00;52950.94;5096418;28;19923;-69
2023/05/11 00:53:36;;;;;;;;;;;;;;;-140.72;100.00;52946.88;5090249;28;20343;-69
2023/05/11 00:56:02;;;;;;;;;;;;;;;-140.72;100.00;52957.03;5094034;28;19920;-69
2023/05/11 00:58:27;;;;;;;;;;;;;;;-140.72;100.00;52920.50;5105992;28;19965;-69
2023/05/11 01:00:52;;;;;;;;;;;;;;;-140.72;100.00;52938.75;5092713;28;20386;-69
2023/05/11 01:03:18;;;;;;;;;;;;;;;-140.72;100.00;52967.16;5084061;28;19924;-69
2023/05/11 01:05:47;;;;;;;;;;;;;;;-140.72;100.00;52950.94;5106197;28;19920;-69
2023/05/11 01:08:26;;;;;;;;;;;;;;;-140.72;100.00;52967.16;5080441;28;20020;-69
2023/05/11 01:11:21;;;;;;;;;;;;;;;-140.72;100.00;52910.34;5084808;28;19917;-69
2023/05/11 01:13:52;;;;;;;;;;;;;;;-140.72;100.00;52932.66;5085559;28;20379;-69
2023/05/11 01:16:18;;;;;;;;;;;;;;;-140.72;100.00;52977.31;5083452;28;19920;-69
2023/05/11 01:18:49;;;;;;;;;;;;;;;-140.72;100.00;52944.84;5096460;28;20402;-69
2023/05/11 01:21:16;;;;;;;;;;;;;;;-140.72;100.00;52938.75;5092754;28;20355;-69
2023/05/11 01:23:47;;;;;;;;;;;;;;;-140.72;100.00;52928.63;5092280;28;19920;-69
2023/05/11 01:26:16;;;;;;;;;;;;;;;-140.72;100.00;52928.63;5095327;28;19939;-69
2023/05/11 01:28:44;;;;;;;;;;;;;;;-140.72;100.00;52967.16;5108600;28;19923;-69
2023/05/11 01:31:10;;;;;;;;;;;;;;;-140.72;100.00;52938.75;5090769;28;20072;-69
2023/05/11 01:33:36;;;;;;;;;;;;;;;-140.72;100.00;52942.81;5080218;28;19928;-69
2023/05/11 01:36:07;;;;;;;;;;;;;;;-140.72;100.00;52946.88;5076567;28;20355;-69
2023/05/11 01:38:36;;;;;;;;;;;;;;;-140.72;100.00;52926.59;5090557;28;19916;-69
2023/05/11 01:41:04;;;;;;;;;;;;;;;-140.72;100.00;52967.16;5088105;28;19920;-69
2023/05/11 01:43:34;;;;;;;;;;;;;;;-140.72;100.00;52942.81;5095678;28;19916;-69
2023/05/11 01:46:02;;;;;;;;;;;;;;;-140.72;100.00;52942.81;5094031;28;19916;-69
2023/05/11 01:48:30;;;;;;;;;;;;;;;-140.72;100.00;52914.41;5090713;28;20329;-69
2023/05/11 01:50:58;;;;;;;;;;;;;;;-140.72;100.00;52938.75;5086183;28;20353;-69
2023/05/11 01:53:26;;;;;;;;;;;;;;;-140.72;100.00;52948.91;5099981;28;19955;-69
2023/05/11 01:55:54;;;;;;;;;;;;;;;-140.72;100.00;52955.00;5080449;28;19965;-69
2023/05/11 01:58:20;;;;;;;;;;;;;;;-140.72;100.00;52959.06;5096963;28;19916;-69
2023/05/11 02:00:46;;;;;;;;;;;;;;;-140.72;100.00;52932.66;5086081;28;20370;-69
2023/05/11 02:03:12;;;;;;;;;;;;;;;-140.72;100.00;52963.13;5088804;28;19932;-69
2023/05/11 02:05:38;;;;;;;;;;;;;;;-140.72;100.00;52959.06;5091007;28;20057;-69
2023/05/11 02:08:04;;;;;;;;;;;;;;;-140.72;100.00;52981.38;5083598;28;19970;-69
2023/05/11 02:10:31;;;;;;;;;;;;;;;-140.72;100.00;52959.06;5101208;28;19956;-69
2023/05/11 02:12:57;;;;;;;;;;;;;;;-140.72;100.00;52946.88;5096809;28;19926;-69
2023/05/11 02:15:23;;;;;;;;;;;;;;;-140.72;100.00;52952.97;5090972;28;19988;-69
2023/05/11 02:17:54;;;;;;;;;;;;;;;-140.72;100.00;52983.41;5091912;28;20361;-69
2023/05/11 02:20:20;;;;;;;;;;;;;;;-140.72;100.00;52971.22;5095559;28;19965;-69
2023/05/11 02:22:46;;;;;;;;;;;;;;;-140.72;100.00;52930.66;5088583;28;19916;-69
2023/05/11 02:25:12;;;;;;;;;;;;;;;-140.72;100.00;52938.75;5091237;28;19916;-69
2023/05/11 02:27:38;;;;;;;;;;;;;;;-140.72;100.00;52946.88;5098042;28;19987;-69
2023/05/11 02:30:04;;;;;;;;;;;;;;;-140.72;100.00;52944.84;5104630;28;19924;-69
2023/05/11 02:32:32;;;;;;;;;;;;;;;-140.72;100.00;52910.34;5101278;28;19927;-69
2023/05/11 02:35:08;;;;;;;;;;;;;;;-140.72;100.00;52944.84;5093965;28;19952;-69
2023/05/11 02:37:39;;;;;;;;;;;;;;;-140.72;100.00;52950.94;5093546;28;19927;-69
2023/05/11 02:40:07;;;;;;;;;;;;;;;-140.72;100.00;52940.78;5087812;28;20416;-69
2023/05/11 02:42:38;;;;;;;;;;;;;;;-140.72;100.00;52946.88;5091952;28;19944;-69
2023/05/11 02:45:06;;;;;;;;;;;;;;;-140.72;100.00;52938.75;5081651;28;19923;-69
2023/05/11 02:47:38;;;;;;;;;;;;;;;-140.72;100.00;52934.69;5079971;28;19920;-69
2023/05/11 02:50:04;;;;;;;;;;;;;;;-140.72;100.00;52914.41;5082327;28;20273;-69
2023/05/11 02:52:39;;;;;;;;;;;;;;;-140.72;100.00;52946.88;5086616;28;19920;-69
2023/05/11 02:55:05;;;;;;;;;;;;;;;-140.72;100.00;52932.66;5100842;28;19924;-69
2023/05/11 02:57:30;;;;;;;;;;;;;;;-140.72;100.00;52930.66;5099143;28;19970;-69
2023/05/11 02:59:56;;;;;;;;;;;;;;;-140.72;100.00;52940.78;5080136;28;19916;-69
2023/05/11 03:02:21;;;;;;;;;;;;;;;-140.72;100.00;52938.75;5081774;28;19920;-69
2023/05/11 03:04:46;;;;;;;;;;;;;;;-140.72;100.00;52942.81;5101596;28;19945;-69
2023/05/11 03:07:12;;;;;;;;;;;;;;;-140.72;100.00;52979.34;5109532;28;19923;-69
2023/05/11 03:09:37;;;;;;;;;;;;;;;-140.72;100.00;52912.38;5091192;28;19916;-69
2023/05/11 03:12:02;;;;;;;;;;;;;;;-140.72;100.00;52934.69;5102062;28;20355;-69
2023/05/11 03:14:29;;;;;;;;;;;;;;;-140.72;100.00;52934.69;5099106;27;20014;-69
2023/05/11 03:16:55;;;;;;;;;;;;;;;-140.72;100.00;52950.94;5086333;28;19920;-69
2023/05/11 03:19:21;;;;;;;;;;;;;;;-140.72;100.00;52918.47;5092463;28;19939;-69
2023/05/11 03:21:46;;;;;;;;;;;;;;;-140.72;100.00;52910.34;5074283;28;19943;-69
2023/05/11 03:24:11;;;;;;;;;;;;;;;-140.72;100.00;52946.88;5089903;28;19916;-69
2023/05/11 03:26:38;;;;;;;;;;;;;;;-140.72;100.00;52946.88;5101670;28;20374;-69
2023/05/11 03:29:03;;;;;;;;;;;;;;;-140.72;100.00;52942.81;5098051;28;19932;-69
2023/05/11 03:31:29;;;;;;;;;;;;;;;-140.72;100.00;52940.78;5074557;28;19920;-69
2023/05/11 03:33:54;;;;;;;;;;;;;;;-140.72;100.00;52922.53;5089810;28;19916;-69
2023/05/11 03:36:21;;;;;;;;;;;;;;;-140.72;100.00;52922.53;5094920;28;20445;-69
2023/05/11 03:38:47;;;;;;;;;;;;;;;-140.72;100.00;52936.72;5094963;28;20314;-69
2023/05/11 03:41:16;;;;;;;;;;;;;;;-140.72;100.00;52930.66;5100964;28;19923;-69
2023/05/11 03:43:43;;;;;;;;;;;;;;;-140.72;100.00;52944.84;5095327;28;20456;-70
2023/05/11 03:46:10;;;;;;;;;;;;;;;-140.72;100.00;52967.16;5086552;28;20290;-69
2023/05/11 03:48:35;;;;;;;;;;;;;;;-140.72;100.00;52946.88;5101014;28;19916;-69
2023/05/11 03:51:02;;;;;;;;;;;;;;;-140.72;100.00;52948.91;5093054;28;19965;-69
2023/05/11 03:53:29;;;;;;;;;;;;;;;-140.72;100.00;52967.16;5083782;28;19924;-69
2023/05/11 03:55:54;;;;;;;;;;;;;;;-140.72;100.00;52979.34;5090576;28;19941;-69
2023/05/11 03:58:20;;;;;;;;;;;;;;;-140.72;100.00;52912.38;5097814;28;20002;-69
2023/05/11 04:00:46;;;;;;;;;;;;;;;-140.72;100.00;52924.56;5085915;28;20278;-69
2023/05/11 04:03:11;;;;;;;;;;;;;;;-140.72;100.00;52914.41;5087961;28;19927;-69
2023/05/11 04:05:36;;;;;;;;;;;;;;;-140.72;100.00;52981.38;5096385;28;19977;-69
2023/05/11 04:08:02;;;;;;;;;;;;;;;-140.72;100.00;52930.66;5097272;28;20019;-69
2023/05/11 04:10:28;;;;;;;;;;;;;;;-140.72;100.00;52971.22;5090337;28;19920;-69
2023/05/11 04:12:53;;;;;;;;;;;;;;;-140.72;100.00;52969.19;5091239;28;20323;-69
2023/05/11 04:15:19;;;;;;;;;;;;;;;-140.72;100.00;52928.63;5095273;28;19942;-69
2023/05/11 04:17:44;;;;;;;;;;;;;;;-140.72;100.00;52950.94;5084361;28;19927;-70
2023/05/11 04:20:09;;;;;;;;;;;;;;;-140.72;100.00;52922.53;5099116;28;19999;-70
2023/05/11 04:22:35;;;;;;;;;;;;;;;-140.72;100.00;52918.47;5093354;28;19931;-69
2023/05/11 04:25:00;;;;;;;;;;;;;;;-140.72;100.00;52946.88;5086404;28;19916;-71
2023/05/11 04:27:25;;;;;;;;;;;;;;;-140.72;100.00;52912.38;5082187;28;19924;-73
2023/05/11 04:29:50;;;;;;;;;;;;;;;-140.72;100.00;52946.88;5090618;28;19916;-71
2023/05/11 04:32:16;;;;;;;;;;;;;;;-140.72;100.00;52924.56;5087615;28;19920;-71
2023/05/11 04:34:41;;;;;;;;;;;;;;;-140.72;100.00;52912.38;5089605;28;19927;-71
2023/05/11 04:37:06;;;;;;;;;;;;;;;-140.72;100.00;52934.69;5076288;28;20014;-71
2023/05/11 04:39:32;;;;;;;;;;;;;;;-140.72;100.00;52926.59;5090535;28;19920;-71
2023/05/11 04:41:58;;;;;;;;;;;;;;;-140.72;100.00;52922.53;5089511;28;19916;-71
2023/05/11 04:44:23;;;;;;;;;;;;;;;-140.72;100.00;52904.25;5096489;28;19920;-72
2023/05/11 04:46:52;;;;;;;;;;;;;;;-140.72;100.00;52922.53;5100770;28;19923;-71
2023/05/11 04:49:17;;;;;;;;;;;;;;;-140.72;100.00;52924.56;5094614;28;19978;-72
2023/05/11 04:51:42;;;;;;;;;;;;;;;-140.72;100.00;52971.22;5084545;28;19977;-73
2023/05/11 04:54:09;;;;;;;;;;;;;;;-140.72;100.00;52908.31;5093007;28;19963;-72
2023/05/11 04:56:39;;;;;;;;;;;;;;;-140.72;100.00;52904.25;5090941;28;19920;-72
2023/05/11 04:59:04;;;;;;;;;;;;;;;-140.72;100.00;52875.84;5098533;28;20394;-71
2023/05/11 05:01:29;;;;;;;;;;;;;;;-140.72;100.00;52922.53;5096898;28;19923;-72
2023/05/11 05:03:54;;;;;;;;;;;;;;;-140.72;100.00;52906.28;5089210;28;19920;-72
2023/05/11 05:06:20;;;;;;;;;;;;;;;-140.72;100.00;52910.34;5088630;28;20275;-72
2023/05/11 05:08:45;;;;;;;;;;;;;;;-140.72;100.00;52926.59;5087005;28;19955;-72
2023/05/11 05:11:10;;;;;;;;;;;;;;;-140.72;100.00;52916.44;5089352;28;20400;-72
2023/05/11 05:13:35;;;;;;;;;;;;;;;-140.72;100.00;52906.28;5099228;28;20161;-72
2023/05/11 05:16:01;;;;;;;;;;;;;;;-140.72;100.00;52918.47;5088383;28;19967;-72
2023/05/11 05:18:26;;;;;;;;;;;;;;;-140.72;100.00;52908.31;5089141;28;19923;-72
2023/05/11 05:20:51;;;;;;;;;;;;;;;-140.72;100.00;52879.91;5102254;28;19921;-72
2023/05/11 05:23:16;;;;;;;;;;;;;;;-140.72;100.00;52926.59;5087096;28;20255;-72
2023/05/11 05:25:41;;;;;;;;;;;;;;;-140.72;100.00;52924.56;5091422;28;19921;-72
2023/05/11 05:28:07;;;;;;;;;;;;;;;-140.72;100.00;52902.22;5094911;28;19920;-72
2023/05/11 05:30:32;;;;;;;;;;;;;;;-140.72;100.00;52910.34;5090688;28;19924;-72
2023/05/11 05:32:57;;;;;;;;;;;;;;;-140.72;100.00;52908.31;5094048;28;19920;-72
2023/05/11 05:35:22;;;;;;;;;;;;;;;-140.72;100.00;52920.50;5096110;28;19999;-72
2023/05/11 05:37:48;;;;;;;;;;;;;;;-140.72;100.00;52890.06;5092238;28;20010;-72
2023/05/11 05:40:14;;;;;;;;;;;;;;;-140.72;100.00;52873.81;5082385;28;19963;-72
2023/05/11 05:42:39;;;;;;;;;;;;;;;-140.72;100.00;52898.16;5089320;28;20007;-72
2023/05/11 05:45:04;;;;;;;;;;;;;;;-140.72;100.00;52906.28;5092776;28;19927;-71
2023/05/11 05:47:30;;;;;;;;;;;;;;;-140.72;100.00;52863.66;5098845;28;20003;-71
2023/05/11 05:49:55;;;;;;;;;;;;;;;-140.72;100.00;52875.84;5097283;28;19916;-71
2023/05/11 05:52:20;;;;;;;;;;;;;;;-140.72;100.00;52873.81;5103668;28;19972;-71
2023/05/11 05:54:45;;;;;;;;;;;;;;;-140.72;100.00;52912.38;5110407;28;20069;-70
2023/05/11 05:57:11;;;;;;;;;;;;;;;-140.72;100.00;52886.00;5090489;28;19919;-72
2023/05/11 05:59:36;;;;;;;;;;;;;;;-140.72;100.00;52908.31;5085687;28;19924;-71
2023/05/11 06:02:01;;;;;;;;;;;;;;;-140.72;100.00;52892.09;5097042;28;19924;-72
2023/05/11 06:04:27;;;;;;;;;;;;;;;-140.72;100.00;52902.22;5080355;28;19924;-72
2023/05/11 06:06:52;;;;;;;;;;;;;;;-140.72;100.00;52875.84;5093010;28;19916;-72
2023/05/11 06:09:17;;;;;;;;;;;;;;;-140.72;100.00;52865.69;5100819;28;19969;-74
2023/05/11 06:11:42;;;;;;;;;;;;;;;-140.72;100.00;52892.09;5103736;28;20371;-70
2023/05/11 06:14:08;;;;;;;;;;;;;;;-140.72;100.00;52898.16;5097320;28;20350;-70
2023/05/11 06:16:33;;;;;;;;;;;;;;;-140.72;100.00;52867.72;5111467;27;19920;-70
2023/05/11 06:18:58;;;;;;;;;;;;;;;-140.72;100.00;52888.03;5092662;28;19939;-69
2023/05/11 06:21:23;;;;;;;;;;;;;;;-140.72;100.00;52881.94;5099869;28;19963;-70
2023/05/11 06:23:48;;;;;;;;;;;;;;;-140.72;100.00;52873.81;5099212;28;19916;-71
2023/05/11 06:26:14;;;;;;;;;;;;;;;-140.72;100.00;52894.13;5103415;28;19916;-71
2023/05/11 06:28:39;;;;;;;;;;;;;;;-140.72;100.00;52871.78;5106964;28;19937;-70
2023/05/11 06:31:04;;;;;;;;;;;;;;;-140.72;100.00;52877.88;5097289;28;19916;-70
2023/05/11 06:33:30;;;;;;;;;;;;;;;-140.72;100.00;52865.69;5098893;28;19938;-71
2023/05/11 06:35:55;;;;;;;;;;;;;;;-140.72;100.00;52912.38;5096439;28;19916;-71
2023/05/11 06:38:20;;;;;;;;;;;;;;;-140.72;100.00;52863.66;5101304;28;19927;-70
2023/05/11 06:40:45;;;;;;;;;;;;;;;-140.72;100.00;52810.91;5095847;28;20015;-71
2023/05/11 06:43:11;;;;;;;;;;;;;;;-140.72;100.00;52863.66;5088677;28;19943;-71
2023/05/11 06:45:36;;;;;;;;;;;;;;;-140.72;100.00;52894.13;5091795;28;19920;-71
2023/05/11 06:48:02;;;;;;;;;;;;;;;-140.72;100.00;52900.19;5084489;28;19924;-71
2023/05/11 06:50:27;;;;;;;;;;;;;;;-140.72;100.00;52853.53;5108146;28;19920;-70
2023/05/11 06:52:53;;;;;;;;;;;;;;;-140.72;100.00;52888.03;5084648;28;19924;-71
2023/05/11 06:55:18;;;;;;;;;;;;;;;-140.72;100.00;52833.22;5107850;28;19916;-70
2023/05/11 06:57:43;;;;;;;;;;;;;;;-140.72;100.00;52841.34;5112294;28;19922;-70
2023/05/11 07:00:09;;;;;;;;;;;;;;;-140.72;100.00;52841.34;5109259;28;20006;-72
2023/05/11 07:02:34;;;;;;;;;;;;;;;-140.72;100.00;52881.94;5096040;28;19959;-71
2023/05/11 07:04:59;;;;;;;;;;;;;;;-140.72;100.00;52814.97;5095437;28;20489;-71
2023/05/11 07:07:24;;;;;;;;;;;;;;;-140.72;100.00;52827.16;5091497;28;20371;-71
2023/05/11 07:09:50;;;;;;;;;;;;;;;-140.72;100.00;52814.97;5095064;28;20326;-71
2023/05/11 07:12:15;;;;;;;;;;;;;;;-140.72;100.00;52825.13;5111928;28;19916;-71
2023/05/11 07:14:40;;;;;;;;;;;;;;;-140.72;100.00;52829.19;5105417;28;19931;-71
2023/05/11 07:17:05;;;;;;;;;;;;;;;-140.72;100.00;52804.81;5107257;28;19923;-72
2023/05/11 07:19:31;;;;;;;;;;;;;;;-140.72;100.00;52821.06;5109299;28;19949;-72
2023/05/11 07:21:56;;;;;;;;;;;;;;;-140.72;100.00;52814.97;5096300;28;19977;-72
2023/05/11 07:24:21;;;;;;;;;;;;;;;-140.72;100.00;52802.78;5106355;28;19924;-72
2023/05/11 07:26:48;;;;;;;;;;;;;;;-140.72;100.00;52829.19;5112011;28;20346;-73
2023/05/11 07:29:14;;;;;;;;;;;;;;;-140.72;100.00;52845.41;5103393;28;19978;-72
2023/05/11 07:31:39;;;;;;;;;;;;;;;-140.72;100.00;52812.94;5111543;28;20362;-72
2023/05/11 07:34:04;;;;;;;;;;;;;;;-140.72;100.00;52808.88;5099881;28;20401;-72
2023/05/11 07:36:30;;;;;;;;;;;;;;;-140.72;100.00;52819.03;5115146;28;19961;-73
2023/05/11 07:38:56;;;;;;;;;;;;;;;-140.72;100.00;52810.91;5103703;28;19963;-72
2023/05/11 07:41:25;;;;;;;;;;;;;;;-140.72;100.00;52812.94;5109229;28;19916;-73
2023/05/11 07:43:50;;;;;;;;;;;;;;;-140.72;100.00;52835.25;5094561;28;20267;-72
2023/05/11 07:46:16;;;;;;;;;;;;;;;-140.72;100.00;52821.06;5089603;28;19926;-72
2023/05/11 07:48:41;;;;;;;;;;;;;;;-140.72;100.00;52810.91;5092995;28;19979;-72
2023/05/11 07:51:06;;;;;;;;;;;;;;;-140.72;100.00;52796.72;5108473;27;20026;-72
2023/05/11 07:53:31;;;;;;;;;;;;;;;-140.72;100.00;52814.97;5108173;28;19963;-72
2023/05/11 07:55:58;;;;;;;;;;;;;;;-140.72;100.00;52800.75;5109190;28;19923;-72
2023/05/11 07:58:23;;;;;;;;;;;;;;;-140.72;100.00;52762.22;5094343;28;20357;-72
2023/05/11 08:00:49;;;;;;;;;;;;;;;-140.72;100.00;52792.66;5097292;28;19920;-72
2023/05/11 08:03:14;;;;;;;;;;;;;;;-140.72;100.00;52776.41;5122819;27;19989;-71
2023/05/11 08:05:39;;;;;;;;;;;;;;;-140.72;100.00;52772.34;5081556;28;20573;-72
2023/05/11 08:08:05;;;;;;;;;;;;;;;-140.72;100.00;52778.44;5089990;28;19942;-72
2023/05/11 08:10:30;;;;;;;;;;;;;;;-140.72;100.00;52778.44;5084953;28;20027;-72
2023/05/11 08:12:56;;;;;;;;;;;;;;;-140.72;100.00;52788.59;5090279;28;20171;-72
2023/05/11 08:15:21;;;;;;;;;;;;;;;-140.72;100.00;52780.47;5093130;28;19927;-72
2023/05/11 08:17:46;;;;;;;;;;;;;;;-140.72;100.00;52784.53;5091368;28;20313;-72
2023/05/11 08:20:12;;;;;;;;;;;;;;;-140.72;100.00;52768.28;5085366;28;19924;-72
2023/05/11 08:22:37;;;;;;;;;;;;;;;-140.72;100.00;52766.25;5086683;28;20389;-72
2023/05/11 08:25:02;;;;;;;;;;;;;;;-140.72;100.00;52743.94;5079382;28;20464;-72
2023/05/11 08:27:28;;;;;;;;;;;;;;;-140.72;100.00;52790.63;5078160;28;21334;-72
2023/05/11 08:29:53;;;;;;;;;;;;;;;-140.72;100.00;52808.88;5081861;28;20007;-72
2023/05/11 08:32:19;;;;;;;;;;;;;;;-140.72;100.00;52768.28;5083523;28;19985;-72
2023/05/11 08:34:44;;;;;;;;;;;;;;;-140.72;100.00;52784.53;5080306;28;19931;-72
2023/05/11 08:37:09;;;;;;;;;;;;;;;-140.72;100.00;52752.06;5090406;28;19928;-72
2023/05/11 08:39:35;;;;;;;;;;;;;;;-140.72;100.00;52750.03;5100815;28;19915;-72
2023/05/11 08:42:01;;;;;;;;;;;;;;;-140.72;100.00;52743.94;5096441;28;20302;-72
2023/05/11 08:44:28;;;;;;;;;;;;;;;-140.72;100.00;52796.72;5109516;28;19926;-71
2023/05/11 08:46:53;;;;;;;;;;;;;;;-140.72;100.00;52758.16;5082376;28;19924;-71
2023/05/11 08:49:19;;;;;;;;;;;;;;;-140.72;100.00;52758.16;5116358;28;19923;-71
2023/05/11 08:51:45;;;;;;;;;;;;;;;-140.72;100.00;52784.53;5104908;28;19916;-72
2023/05/11 08:54:11;;;;;;;;;;;;;;;-140.72;100.00;52786.56;5090220;28;20357;-72
2023/05/11 08:56:38;;;;;;;;;;;;;;;-140.72;100.00;52760.19;5103487;28;19919;-72
2023/05/11 08:59:04;;;;;;;;;;;;;;;-140.72;100.00;52774.38;5095790;28;19920;-72
2023/05/11 09:01:29;;;;;;;;;;;;;;;-140.72;100.00;52800.75;5090944;28;19998;-72
2023/05/11 09:03:55;;;;;;;;;;;;;;;-140.72;100.00;52796.72;5115161;28;19919;-72
2023/05/11 09:06:22;;;;;;;;;;;;;;;-140.72;100.00;52778.44;5113288;28;19916;-72
2023/05/11 09:08:47;;;;;;;;;;;;;;;-140.72;100.00;52788.59;5091864;28;19969;-71
2023/05/11 09:11:13;;;;;;;;;;;;;;;-140.72;100.00;52814.97;5084836;28;20406;-72
2023/05/11 09:13:38;;;;;;;;;;;;;;;-140.72;100.00;52808.88;5087665;28;19923;-72
2023/05/11 09:16:03;;;;;;;;;;;;;;;-140.72;100.00;52790.63;5101842;28;19985;-71
2023/05/11 09:18:29;;;;;;;;;;;;;;;-140.72;100.00;52823.09;5104054;28;19924;-70
2023/05/11 09:20:54;;;;;;;;;;;;;;;-140.72;100.00;52806.84;5095280;28;19965;-71
2023/05/11 09:23:26;;;;;;;;;;;;;;;-140.72;100.00;52817.00;5103437;28;20370;-70
2023/05/11 09:25:51;;;;;;;;;;;;;;;-140.72;100.00;52817.00;5100841;28;20003;-72
2023/05/11 09:28:21;;;;;;;;;;;;;;;-140.72;100.00;52796.72;5109948;28;20004;-70
2023/05/11 09:30:46;;;;;;;;;;;;;;;-140.72;100.00;52800.75;5108315;28;19974;-72
2023/05/11 09:33:19;;;;;;;;;;;;;;;-140.72;100.00;52784.53;5097633;28;19916;-71
2023/05/11 09:35:45;;;;;;;;;;;;;;;-140.72;100.00;52778.44;5092197;28;19919;-71
2023/05/11 09:38:11;;;;;;;;;;;;;;;-140.72;100.00;52768.28;5104383;28;20345;-71
2023/05/11 09:40:38;;;;;;;;;;;;;;;-140.72;100.00;52784.53;5105435;28;20321;-71
2023/05/11 09:43:16;;;;;;;;;;;;;;;-140.72;100.00;52798.72;5098315;28;19927;-71
2023/05/11 09:45:43;;;;;;;;;;;;;;;-140.72;100.00;52752.06;5099025;28;19982;-71
2023/05/11 09:48:22;;;;;;;;;;;;;;;-140.72;100.00;52764.25;5088767;28;19989;-71
2023/05/11 09:50:49;;;;;;;;;;;;;;;-140.72;100.00;52780.47;5107097;28;19959;-71
2023/05/11 09:53:14;;;;;;;;;;;;;;;-140.72;100.00;52725.69;5092072;28;19927;-71
2023/05/11 09:55:52;;;;;;;;;;;;;;;-140.72;100.00;52770.31;5103045;28;20402;-71
2023/05/11 09:58:17;;;;;;;;;;;;;;;-140.72;100.00;52762.22;5097454;28;20294;-71
2023/05/11 10:00:52;;;;;;;;;;;;;;;-140.72;100.00;52778.44;5093579;28;19920;-71
2023/05/11 10:03:18;;;;;;;;;;;;;;;-140.72;100.00;52784.53;5094322;28;20285;-71
2023/05/11 10:05:57;;;;;;;;;;;;;;;-140.72;100.00;52780.47;5093031;28;19920;-71
2023/05/11 10:08:29;;;;;;;;;;;;;;;-140.72;100.00;52772.34;5092164;28;19923;-71
2023/05/11 10:10:55;;;;;;;;;;;;;;;-140.72;100.00;52735.81;5110457;28;19927;-71
2023/05/11 10:13:20;;;;;;;;;;;;;;;-140.72;100.00;52762.22;5085911;28;19920;-71
2023/05/11 10:15:48;;;;;;;;;;;;;;;-140.72;100.00;52774.38;5098177;28;19920;-71
2023/05/11 10:18:14;;;;;;;;;;;;;;;-140.72;100.00;52762.22;5088604;28;20299;-71
2023/05/11 10:20:39;;;;;;;;;;;;;;;-140.72;100.00;52804.81;5085266;28;19916;-71
2023/05/11 10:23:05;;;;;;;;;;;;;;;-140.72;100.00;52782.50;5088148;28;19938;-71
2023/05/11 10:25:30;;;;;;;;;;;;;;;-140.72;100.00;52772.34;5078151;28;19920;-71
2023/05/11 10:27:56;;;;;;;;;;;;;;;-140.72;100.00;52764.25;5093277;28;19955;-71
2023/05/11 10:30:21;;;;;;;;;;;;;;;-140.72;100.00;52796.72;5086099;28;19923;-71
2023/05/11 10:32:46;;;;;;;;;;;;;;;-140.72;100.00;52786.56;5089393;28;20022;-73
2023/05/11 10:35:11;;;;;;;;;;;;;;;-140.72;100.00;52741.91;5083276;28;19921;-72
2023/05/11 10:37:37;;;;;;;;;;;;;;;-140.72;100.00;52762.22;5100877;28;19917;-72
2023/05/11 10:40:03;;;;;;;;;;;;;;;-140.72;100.00;52796.72;5076794;28;19986;-72
2023/05/11 10:42:40;;;;;;;;;;;;;;;-140.72;100.00;52758.16;5084768;28;20275;-72
2023/05/11 10:45:21;;;;;;;;;;;;;;;-140.72;100.00;52723.66;5081850;28;20300;-72
2023/05/11 10:47:53;;;;;;;;;;;;;;;-140.72;100.00;52784.53;5074855;28;20255;-73
2023/05/11 10:50:37;;;;;;;;;;;;;;;-140.72;100.00;52754.09;5076629;28;19932;-73
2023/05/11 10:53:21;;;;;;;;;;;;;;;-140.72;100.00;52745.97;5083436;28;19920;-72
2023/05/11 10:55:58;;;;;;;;;;;;;;;-140.72;100.00;52748.00;5093657;28;19939;-73
2023/05/11 10:58:46;;;;;;;;;;;;;;;-140.72;100.00;52796.72;5110194;28;19970;-73
2023/05/11 11:01:25;;;;;;;;;;;;;;;-140.72;100.00;52760.19;5106446;28;19924;-71
2023/05/11 11:03:54;;;;;;;;;;;;;;;-140.72;100.00;52731.75;5091414;28;19920;-73
2023/05/11 11:06:23;;;;;;;;;;;;;;;-140.72;100.00;52729.75;5091512;28;19916;-71
2023/05/11 11:09:01;;;;;;;;;;;;;;;-140.72;100.00;52723.66;5085210;28;19924;-73
2023/05/11 11:11:32;;;;;;;;;;;;;;;-140.72;100.00;52750.03;5085751;28;19920;-71
2023/05/11 11:14:00;;;;;;;;;;;;;;;-140.72;100.00;52756.13;5099504;28;19920;-72
2023/05/11 11:16:26;;;;;;;;;;;;;;;-140.72;100.00;52707.41;5083923;28;19920;-71
2023/05/11 11:19:12;;;;;;;;;;;;;;;-140.72;100.00;52731.75;5094294;28;20296;-71
2023/05/11 11:21:41;;;;;;;;;;;;;;;-140.72;100.00;52756.13;5083015;28;19973;-72
2023/05/11 11:24:06;;;;;;;;;;;;;;;-140.72;100.00;52780.47;5090267;28;20388;-72
2023/05/11 11:26:48;;;;;;;;;;;;;;;-140.72;100.00;52768.28;5098664;28;19917;-71
2023/05/11 11:29:13;;;;;;;;;;;;;;;-140.72;100.00;52784.53;5090800;28;19921;-72
2023/05/11 11:31:40;;;;;;;;;;;;;;;-140.72;100.00;52776.41;5077674;28;19939;-71
2023/05/11 11:34:24;;;;;;;;;;;;;;;-140.72;100.00;52776.41;5098576;28;19926;-72
2023/05/11 11:37:02;;;;;;;;;;;;;;;-140.72;100.00;52812.94;5091087;28;19924;-71
2023/05/11 11:39:29;;;;;;;;;;;;;;;-140.72;100.00;52776.41;5092492;28;19973;-71
2023/05/11 11:42:00;;;;;;;;;;;;;;;-140.72;100.00;52776.41;5089762;28;19952;-72
2023/05/11 11:44:25;;;;;;;;;;;;;;;-140.72;100.00;52786.56;5101308;28;19927;-71
2023/05/11 11:47:09;;;;;;;;;;;;;;;-140.72;100.00;52788.59;5084668;28;20015;-71
2023/05/11 11:49:36;;;;;;;;;;;;;;;-140.72;100.00;52780.47;5100336;28;19927;-72
2023/05/11 11:52:02;;;;;;;;;;;;;;;-140.72;100.00;52772.34;5092387;28;19927;-72
2023/05/11 11:54:38;;;;;;;;;;;;;;;-140.72;100.00;52780.47;5088131;28;19930;-72
2023/05/11 11:57:03;;;;;;;;;;;;;;;-140.72;100.00;52780.47;5104737;28;19917;-72
2023/05/11 11:59:29;;;;;;;;;;;;;;;-140.72;100.00;52709.44;5098349;28;20293;-72
2023/05/11 12:01:55;;;;;;;;;;;;;;;-140.72;100.00;52756.13;5104058;28;19969;-72
2023/05/11 12:04:33;;;;;;;;;;;;;;;-140.72;100.00;52589.72;5089465;28;20006;-72
2023/05/11 12:06:59;;;;;;;;;;;;;;;-140.72;100.00;52530.88;5091665;28;19972;-72
2023/05/11 12:09:26;;;;;;;;;;;;;;;-140.72;100.00;52427.38;5084954;28;19956;-72
2023/05/11 12:11:52;;;;;;;;;;;;;;;-140.72;41.75;52433.47;5089617;28;19965;-73
2023/05/11 12:14:18;;;;;;;;;;;;;;;-140.72;0.00;52461.88;5073513;28;19928;-72
2023/05/11 12:16:58;;;;;;;;;;;;;;;-140.72;0.00;52467.97;5075564;28;19931;-72